Time;durP1;ratioP1;P1;durP2;ratioP2;P2;SDS_P1;SDS_P2;PMS_P1;PMS_P2;Temp;Humidity;BMP_temperature;BMP_pressure;BME280_temperature;BME280_humidity;BME280_pressure;Samples;Min_cycle;Max_cycle;Signal;HPM_P1;HPM_P2
2022/10/09 00:01:17;;;;;;;17.95;5.43;;;8.30;99.90;;;;;;5057267;28;20066;-78
2022/10/09 00:03:45;;;;;;;17.52;5.85;;;8.20;99.90;;;;;;5074015;28;20058;-79
2022/10/09 00:06:13;;;;;;;10.60;4.88;;;8.20;99.90;;;;;;5063602;28;20132;-79
2022/10/09 00:08:40;;;;;;;23.77;6.05;;;8.10;99.90;;;;;;5043985;28;20477;-78
2022/10/09 00:11:11;;;;;;;13.30;5.22;;;8.10;99.90;;;;;;5046564;28;20056;-78
2022/10/09 00:13:38;;;;;;;14.55;5.70;;;8.00;99.90;;;;;;5042959;28;20048;-78
2022/10/09 00:16:08;;;;;;;15.65;5.70;;;8.10;99.90;;;;;;5057204;28;20079;-78
2022/10/09 00:18:34;;;;;;;19.75;6.10;;;8.00;99.90;;;;;;5037954;28;20044;-78
2022/10/09 00:21:00;;;;;;;13.38;5.40;;;7.90;99.90;;;;;;5051839;28;20134;-77
2022/10/09 00:23:26;;;;;;;14.90;6.18;;;7.90;99.90;;;;;;5057445;28;20044;-78
2022/10/09 00:25:57;;;;;;;19.27;5.60;;;7.80;99.90;;;;;;5069901;28;20090;-80
2022/10/09 00:28:25;;;;;;;14.77;6.10;;;7.80;99.90;;;;;;5061211;28;20135;-77
2022/10/09 00:30:51;;;;;;;17.15;6.40;;;7.70;99.90;;;;;;5052969;28;20052;-77
2022/10/09 00:33:17;;;;;;;17.65;7.35;;;7.70;99.90;;;;;;5073325;28;20082;-77
2022/10/09 00:35:43;;;;;;;16.45;6.70;;;7.70;99.90;;;;;;5048802;28;20150;-78
2022/10/09 00:38:10;;;;;;;14.50;6.65;;;7.50;99.90;;;;;;5039652;28;20177;-77
2022/10/09 00:40:36;;;;;;;14.40;6.63;;;7.50;99.90;;;;;;5063618;28;20044;-78
2022/10/09 00:43:03;;;;;;;19.27;7.22;;;7.50;99.90;;;;;;5035294;28;20048;-77
2022/10/09 00:45:30;;;;;;;14.88;6.70;;;7.40;99.90;;;;;;5049171;28;20039;-78
2022/10/09 00:48:06;;;;;;;12.43;6.30;;;7.40;99.90;;;;;;5048829;28;20461;-81
2022/10/09 00:50:41;;;;;;;15.18;6.78;;;7.30;99.90;;;;;;5053703;28;20048;-78
2022/10/09 00:53:11;;;;;;;17.27;7.07;;;7.30;99.90;;;;;;5071457;28;20055;-77
2022/10/09 00:55:38;;;;;;;18.10;6.68;;;7.20;99.90;;;;;;5072136;28;20101;-78
2022/10/09 00:58:04;;;;;;;16.52;6.80;;;7.20;99.90;;;;;;5064541;28;20044;-78
2022/10/09 01:00:30;;;;;;;21.45;7.82;;;7.10;99.90;;;;;;5066832;28;20048;-77
2022/10/09 01:02:56;;;;;;;19.17;7.43;;;7.00;99.90;;;;;;5056527;28;20046;-78
2022/10/09 01:05:31;;;;;;;18.02;7.75;;;7.10;99.90;;;;;;5072538;28;20040;-78
2022/10/09 01:08:21;;;;;;;16.42;7.38;;;7.00;99.90;;;;;;5071909;28;20048;-78
2022/10/09 01:11:02;;;;;;;18.80;7.55;;;7.00;99.90;;;;;;5059943;28;20412;-78
2022/10/09 01:13:40;;;;;;;17.77;7.18;;;7.00;99.90;;;;;;5070484;28;20048;-78
2022/10/09 01:16:20;;;;;;;18.63;7.25;;;6.90;99.90;;;;;;5054436;28;20169;-78
2022/10/09 01:18:56;;;;;;;21.27;8.20;;;7.00;99.90;;;;;;5046044;28;20052;-78
2022/10/09 01:21:33;;;;;;;24.15;8.85;;;7.00;99.90;;;;;;5055172;28;20144;-78
2022/10/09 01:23:58;;;;;;;;;;;7.00;99.90;;;;;;5066167;28;20052;-78
2022/10/09 01:26:58;;;;;;;23.00;8.13;;;7.00;99.90;;;;;;5071036;28;20384;-78
2022/10/09 01:29:30;;;;;;;19.35;8.35;;;7.00;99.90;;;;;;5052262;28;20048;-78
2022/10/09 01:31:58;;;;;;;14.13;7.38;;;7.00;99.90;;;;;;5067964;28;20094;-78
2022/10/09 01:34:26;;;;;;;20.90;7.20;;;6.90;99.90;;;;;;5082220;28;20134;-78
2022/10/09 01:36:54;;;;;;;20.15;8.23;;;6.80;99.90;;;;;;5035012;28;20072;-78
2022/10/09 01:39:22;;;;;;;14.65;7.60;;;6.80;99.90;;;;;;5046941;28;20044;-78
2022/10/09 01:41:50;;;;;;;20.70;8.00;;;6.70;99.90;;;;;;5046311;28;20066;-78
2022/10/09 01:44:25;;;;;;;15.48;8.05;;;6.70;99.90;;;;;;5029450;28;20128;-79
2022/10/09 01:46:51;;;;;;;17.73;7.72;;;6.60;99.90;;;;;;5030878;28;20052;-80
2022/10/09 01:49:32;;;;;;;19.88;8.38;;;6.50;99.90;;;;;;5029727;28;20056;-78
2022/10/09 01:52:14;;;;;;;21.77;7.93;;;6.50;99.90;;;;;;5041604;28;20071;-78
2022/10/09 01:54:59;;;;;;;19.25;7.78;;;6.50;99.90;;;;;;5029595;28;20110;-78
2022/10/09 01:57:44;;;;;;;20.13;7.47;;;6.40;99.90;;;;;;5046574;28;20677;-78
2022/10/09 02:00:11;;;;;;;16.27;7.78;;;6.40;99.90;;;;;;5016767;28;20050;-78
2022/10/09 02:02:38;;;;;;;18.30;7.45;;;6.30;99.90;;;;;;5025796;28;20049;-78
2022/10/09 02:05:05;;;;;;;19.73;8.20;;;6.30;99.90;;;;;;5031489;28;20052;-78
2022/10/09 02:07:31;;;;;;;30.38;8.38;;;6.20;99.90;;;;;;5045953;28;20053;-78
2022/10/09 02:10:00;;;;;;;18.92;8.80;;;6.20;99.90;;;;;;5010737;28;20506;-78
2022/10/09 02:12:28;;;;;;;15.50;8.65;;;6.20;99.90;;;;;;5040737;28;20132;-78
2022/10/09 02:14:54;;;;;;;17.95;7.65;;;6.10;99.90;;;;;;5028392;28;20068;-78
2022/10/09 02:17:29;;;;;;;15.45;7.57;;;6.10;99.90;;;;;;5007770;28;20614;-78
2022/10/09 02:20:05;;;;;;;18.95;7.88;;;6.10;99.90;;;;;;5041365;28;20127;-77
2022/10/09 02:22:32;;;;;;;23.20;7.43;;;6.10;99.90;;;;;;5045742;28;20045;-78
2022/10/09 02:25:00;;;;;;;20.00;8.20;;;6.10;99.90;;;;;;5043003;28;20112;-78
2022/10/09 02:27:27;;;;;;;20.25;8.95;;;6.00;99.90;;;;;;5027407;28;20148;-79
2022/10/09 02:29:53;;;;;;;20.45;8.52;;;6.00;99.90;;;;;;5025412;28;20090;-78
2022/10/09 02:32:19;;;;;;;20.90;8.20;;;5.90;99.90;;;;;;5039059;28;20059;-78
2022/10/09 02:34:45;;;;;;;17.20;8.20;;;5.90;99.90;;;;;;5037434;28;20049;-77
2022/10/09 02:37:10;;;;;;;26.55;9.18;;;5.90;99.90;;;;;;5011373;28;20602;-80
2022/10/09 02:39:36;;;;;;;19.38;9.40;;;5.90;99.90;;;;;;5029914;28;20106;-78
2022/10/09 02:42:02;;;;;;;19.25;9.30;;;5.90;99.90;;;;;;5043663;28;20037;-77
2022/10/09 02:44:28;;;;;;;21.67;9.90;;;5.90;99.90;;;;;;5021197;28;20050;-78
2022/10/09 02:46:54;;;;;;;23.73;10.25;;;5.80;99.90;;;;;;5027823;28;20056;-77
2022/10/09 02:49:20;;;;;;;23.30;9.93;;;5.80;99.90;;;;;;5043869;28;20099;-78
2022/10/09 02:51:46;;;;;;;22.30;9.60;;;5.80;99.90;;;;;;5010542;28;20061;-78
2022/10/09 02:54:12;;;;;;;23.98;9.50;;;5.80;99.90;;;;;;5011412;28;20056;-80
2022/10/09 02:56:37;;;;;;;22.88;10.85;;;5.80;99.90;;;;;;5029820;28;20041;-77
2022/10/09 02:59:03;;;;;;;24.48;10.57;;;5.80;99.90;;;;;;5043459;28;20414;-78
2022/10/09 03:01:29;;;;;;;19.08;10.57;;;5.80;99.90;;;;;;4997287;28;20049;-79
2022/10/09 03:03:54;;;;;;;27.23;11.55;;;5.80;99.90;;;;;;5043627;28;20048;-77
2022/10/09 03:06:23;;;;;;;23.67;11.30;;;5.80;99.90;;;;;;5013003;28;20052;-78
2022/10/09 03:08:50;;;;;;;26.02;11.75;;;5.70;99.90;;;;;;5030985;28;20087;-78
2022/10/09 03:11:18;;;;;;;20.00;10.27;;;5.70;99.90;;;;;;5044564;28;20571;-81
2022/10/09 03:13:44;;;;;;;27.60;10.80;;;5.70;99.90;;;;;;5046032;28;20094;-78
2022/10/09 03:16:16;;;;;;;22.92;11.00;;;5.70;99.90;;;;;;5014918;28;20048;-77
2022/10/09 03:18:42;;;;;;;26.35;11.70;;;5.70;99.90;;;;;;5031389;28;20171;-78
2022/10/09 03:21:11;;;;;;;23.15;10.98;;;5.70;99.90;;;;;;5030707;28;20048;-78
2022/10/09 03:23:37;;;;;;;27.38;10.80;;;5.70;99.90;;;;;;5047448;28;20045;-77
2022/10/09 03:26:06;;;;;;;27.10;11.57;;;5.70;99.90;;;;;;5012515;28;20052;-78
2022/10/09 03:28:35;;;;;;;28.33;12.02;;;5.60;99.90;;;;;;5043784;28;20041;-78
2022/10/09 03:31:01;;;;;;;23.77;11.77;;;5.70;99.90;;;;;;5040630;28;20045;-77
2022/10/09 03:33:27;;;;;;;28.70;14.07;;;5.60;99.90;;;;;;5030327;28;20044;-78
2022/10/09 03:35:52;;;;;;;24.55;12.10;;;5.60;99.90;;;;;;5040028;28;20518;-78
2022/10/09 03:38:18;;;;;;;24.55;11.48;;;5.70;99.90;;;;;;5011909;28;20054;-81
2022/10/09 03:40:44;;;;;;;23.52;11.77;;;5.50;99.90;;;;;;5029875;28;20048;-77
2022/10/09 03:43:09;;;;;;;26.83;12.38;;;5.50;99.90;;;;;;5047366;28;20494;-77
2022/10/09 03:45:39;;;;;;;25.90;11.63;;;5.50;99.90;;;;;;5028046;28;20041;-77
2022/10/09 03:48:05;;;;;;;31.58;13.30;;;5.50;99.90;;;;;;5036171;28;20128;-77
2022/10/09 03:50:31;;;;;;;23.85;12.00;;;5.50;99.90;;;;;;5042673;28;20121;-78
2022/10/09 03:52:56;;;;;;;23.38;12.10;;;5.50;99.90;;;;;;5051343;28;20091;-77
2022/10/09 03:55:22;;;;;;;23.77;12.25;;;5.40;99.90;;;;;;5033374;28;20493;-77
2022/10/09 03:57:48;;;;;;;24.52;12.98;;;5.40;99.90;;;;;;5017292;28;20440;-77
2022/10/09 04:00:13;;;;;;;30.60;13.57;;;5.40;99.90;;;;;;5048475;28;20394;-78
2022/10/09 04:02:39;;;;;;;26.42;14.23;;;5.40;99.90;;;;;;5047733;28;20056;-79
2022/10/09 04:05:05;;;;;;;26.05;14.13;;;5.40;99.90;;;;;;5015252;28;20065;-78
2022/10/09 04:07:31;;;;;;;22.90;12.07;;;5.40;99.90;;;;;;5020897;28;20049;-78
2022/10/09 04:09:57;;;;;;;19.65;12.07;;;5.40;99.90;;;;;;5013409;28;20045;-78
2022/10/09 04:12:22;;;;;;;28.63;12.82;;;5.40;99.90;;;;;;5030564;28;20495;-80
2022/10/09 04:14:48;;;;;;;17.38;9.52;;;5.30;99.90;;;;;;5046463;28;20398;-78
2022/10/09 04:17:13;;;;;;;16.33;7.30;;;5.30;99.90;;;;;;5011493;28;20505;-78
2022/10/09 04:19:39;;;;;;;14.85;7.53;;;5.30;99.90;;;;;;5013923;28;20076;-78
2022/10/09 04:22:05;;;;;;;11.93;6.80;;;5.20;99.90;;;;;;5014447;28;20118;-78
2022/10/09 04:24:30;;;;;;;10.80;6.90;;;5.10;99.90;;;;;;5030872;28;20049;-77
2022/10/09 04:26:56;;;;;;;13.32;7.30;;;5.10;99.90;;;;;;5050014;28;20449;-80
2022/10/09 04:29:22;;;;;;;14.98;6.93;;;5.00;99.90;;;;;;5033273;28;20053;-77
2022/10/09 04:31:47;;;;;;;13.43;7.78;;;5.00;99.90;;;;;;4997357;28;20041;-77
2022/10/09 04:34:13;;;;;;;17.45;8.90;;;4.90;99.90;;;;;;5013593;28;20045;-78
2022/10/09 04:36:39;;;;;;;18.95;8.85;;;4.90;99.90;;;;;;5054539;28;20048;-77
2022/10/09 04:39:05;;;;;;;10.73;6.30;;;4.90;99.90;;;;;;5054799;28;20056;-77
2022/10/09 04:41:30;;;;;;;11.48;6.70;;;4.90;99.90;;;;;;5053394;28;20048;-77
2022/10/09 04:43:56;;;;;;;8.93;5.38;;;4.80;99.90;;;;;;5039743;28;20151;-78
2022/10/09 04:46:22;;;;;;;7.57;4.90;;;4.80;99.90;;;;;;5070998;28;20043;-77
2022/10/09 04:48:49;;;;;;;7.90;5.25;;;4.80;99.90;;;;;;5031282;28;20870;-78
2022/10/09 04:51:16;;;;;;;9.82;6.03;;;4.80;99.90;;;;;;5064048;28;20105;-77
2022/10/09 04:53:42;;;;;;;9.20;5.70;;;4.70;99.90;;;;;;5072260;28;20044;-77
2022/10/09 04:56:11;;;;;;;12.95;7.25;;;4.70;99.90;;;;;;5071896;28;20083;-77
2022/10/09 04:58:39;;;;;;;8.25;5.50;;;4.70;99.90;;;;;;5072405;28;20044;-77
2022/10/09 05:01:10;;;;;;;18.88;8.10;;;4.60;99.90;;;;;;5032026;28;20489;-77
2022/10/09 05:03:36;;;;;;;17.42;9.93;;;4.60;99.90;;;;;;5069604;28;20447;-78
2022/10/09 05:06:03;;;;;;;16.48;8.07;;;4.60;99.90;;;;;;5043725;28;20048;-78
2022/10/09 05:08:30;;;;;;;19.83;11.82;;;4.60;99.90;;;;;;5071844;28;20052;-79
2022/10/09 05:11:03;;;;;;;24.58;13.38;;;4.50;99.90;;;;;;5056254;28;20089;-78
2022/10/09 05:13:38;;;;;;;24.88;13.90;;;4.50;99.90;;;;;;5069789;28;20052;-78
2022/10/09 05:16:09;;;;;;;21.98;13.02;;;4.60;99.90;;;;;;5069700;28;20409;-77
2022/10/09 05:18:40;;;;;;;20.33;11.57;;;4.50;99.90;;;;;;5070470;28;20050;-77
2022/10/09 05:21:05;;;;;;;21.20;11.88;;;4.50;99.90;;;;;;5070601;28;20044;-77
2022/10/09 05:23:31;;;;;;;27.13;12.43;;;4.50;99.90;;;;;;5050517;28;20045;-80
2022/10/09 05:25:59;;;;;;;24.45;12.23;;;4.60;99.90;;;;;;5051052;28;20044;-77
2022/10/09 05:28:26;;;;;;;26.42;12.45;;;4.60;99.90;;;;;;5055798;28;20047;-77
2022/10/09 05:30:52;;;;;;;18.33;10.02;;;4.50;99.90;;;;;;5065632;28;20495;-77
2022/10/09 05:33:18;;;;;;;10.75;7.28;;;4.60;99.90;;;;;;5070007;28;20043;-77
2022/10/09 05:35:55;;;;;;;10.02;6.82;;;4.60;99.90;;;;;;5053291;28;20044;-78
2022/10/09 05:38:22;;;;;;;12.63;6.28;;;4.50;99.90;;;;;;5075967;28;20060;-77
2022/10/09 05:40:57;;;;;;;9.30;5.60;;;4.60;99.90;;;;;;5053548;28;20055;-77
2022/10/09 05:43:24;;;;;;;8.98;5.97;;;4.50;99.90;;;;;;5064505;28;20625;-79
2022/10/09 05:45:53;;;;;;;8.20;6.22;;;4.40;99.90;;;;;;5066538;28;20106;-78
2022/10/09 05:48:20;;;;;;;9.02;6.00;;;4.40;99.90;;;;;;5063368;28;20466;-77
2022/10/09 05:50:46;;;;;;;9.65;6.53;;;4.30;99.90;;;;;;5054156;28;20040;-77
2022/10/09 05:53:11;;;;;;;11.60;5.72;;;4.30;99.90;;;;;;5071806;28;20055;-78
2022/10/09 05:55:37;;;;;;;12.70;6.97;;;4.30;99.90;;;;;;5054677;28;20485;-77
2022/10/09 05:58:03;;;;;;;9.90;6.43;;;4.30;99.90;;;;;;5054948;28;20059;-77
2022/10/09 06:00:29;;;;;;;13.90;7.45;;;4.20;99.90;;;;;;5055275;28;20465;-78
2022/10/09 06:02:55;;;;;;;14.50;8.38;;;4.20;99.90;;;;;;5054584;28;20035;-77
2022/10/09 06:05:20;;;;;;;20.63;9.52;;;4.30;99.90;;;;;;5054801;28;20074;-77
2022/10/09 06:07:46;;;;;;;14.27;8.60;;;4.20;99.90;;;;;;5062016;28;20071;-78
2022/10/09 06:10:12;;;;;;;10.82;7.38;;;4.20;99.90;;;;;;5041619;28;20043;-77
2022/10/09 06:12:38;;;;;;;15.35;8.90;;;4.30;99.90;;;;;;5060779;28;20062;-78
2022/10/09 06:15:05;;;;;;;18.80;10.05;;;4.30;99.90;;;;;;5056626;28;20044;-77
2022/10/09 06:17:32;;;;;;;20.02;10.52;;;4.30;99.90;;;;;;5061905;28;20052;-77
2022/10/09 06:19:58;;;;;;;19.58;10.27;;;4.30;99.90;;;;;;5060173;28;20084;-78
2022/10/09 06:22:24;;;;;;;17.35;9.95;;;4.40;99.90;;;;;;5052263;28;20507;-77
2022/10/09 06:24:49;;;;;;;21.08;11.10;;;4.40;99.90;;;;;;5050875;28;20070;-76
2022/10/09 06:27:15;;;;;;;19.70;11.45;;;4.40;99.90;;;;;;5032348;28;20128;-76
2022/10/09 06:29:40;;;;;;;22.25;12.50;;;4.40;99.90;;;;;;5065747;28;20045;-80
2022/10/09 06:32:06;;;;;;;18.77;11.85;;;4.50;99.90;;;;;;5061239;28;20051;-77
2022/10/09 06:34:32;;;;;;;21.60;11.40;;;4.60;99.90;;;;;;5053921;28;20507;-77
2022/10/09 06:36:57;;;;;;;25.65;11.77;;;4.60;99.90;;;;;;5050615;28;20048;-77
2022/10/09 06:39:25;;;;;;;25.60;13.35;;;4.70;99.90;;;;;;5054690;28;20378;-78
2022/10/09 06:41:51;;;;;;;21.58;12.10;;;4.70;99.90;;;;;;5049487;28;20059;-77
2022/10/09 06:44:17;;;;;;;28.42;14.32;;;4.80;99.90;;;;;;5055287;28;20039;-79
2022/10/09 06:46:44;;;;;;;25.23;13.00;;;4.80;99.90;;;;;;5068981;28;20055;-82
2022/10/09 06:49:10;;;;;;;27.08;14.85;;;4.90;99.90;;;;;;5069567;28;20044;-78
2022/10/09 06:51:36;;;;;;;28.42;14.20;;;4.90;99.90;;;;;;5037328;28;20044;-78
2022/10/09 06:54:07;;;;;;;28.65;15.98;;;5.00;99.90;;;;;;5066103;28;20040;-78
2022/10/09 06:56:33;;;;;;;31.15;14.63;;;5.00;99.90;;;;;;5067850;28;20056;-79
2022/10/09 06:59:00;;;;;;;21.25;14.20;;;5.10;99.90;;;;;;5067432;28;20118;-78
2022/10/09 07:01:30;;;;;;;22.88;12.55;;;5.20;99.90;;;;;;5050711;28;20086;-78
2022/10/09 07:03:59;;;;;;;20.70;12.88;;;5.30;99.90;;;;;;5047717;28;20055;-78
2022/10/09 07:06:30;;;;;;;23.67;14.00;;;5.30;99.90;;;;;;5065238;28;20496;-78
2022/10/09 07:08:59;;;;;;;30.17;15.70;;;5.40;99.90;;;;;;5056516;28;20075;-77
2022/10/09 07:11:27;;;;;;;31.45;15.93;;;5.50;99.90;;;;;;5061005;28;20044;-79
2022/10/09 07:14:00;;;;;;;23.85;14.75;;;5.50;99.90;;;;;;5046917;28;20048;-78
2022/10/09 07:16:28;;;;;;;33.35;16.65;;;5.50;99.90;;;;;;5043148;28;20049;-78
2022/10/09 07:18:54;;;;;;;26.30;15.82;;;5.60;99.90;;;;;;5066658;28;20048;-77
2022/10/09 07:21:20;;;;;;;31.08;15.88;;;5.70;99.90;;;;;;5083974;28;20386;-77
2022/10/09 07:23:47;;;;;;;24.27;15.55;;;5.70;99.90;;;;;;5041577;28;20084;-78
2022/10/09 07:26:14;;;;;;;26.88;16.23;;;5.80;99.90;;;;;;5069033;28;20048;-77
2022/10/09 07:28:41;;;;;;;29.55;18.23;;;5.90;99.90;;;;;;5055663;28;20477;-77
2022/10/09 07:31:07;;;;;;;21.33;13.48;;;5.90;99.90;;;;;;5057618;28;20193;-77
2022/10/09 07:33:33;;;;;;;28.25;16.00;;;6.00;99.90;;;;;;5056011;28;20047;-77
2022/10/09 07:36:01;;;;;;;26.20;15.32;;;6.00;99.90;;;;;;5069394;28;20093;-77
2022/10/09 07:38:27;;;;;;;23.45;14.48;;;6.20;99.90;;;;;;5057212;28;20127;-79
2022/10/09 07:40:54;;;;;;;25.52;15.77;;;6.30;99.90;;;;;;5071074;28;20044;-78
2022/10/09 07:43:20;;;;;;;24.30;15.35;;;6.30;99.90;;;;;;5065450;28;20053;-77
2022/10/09 07:45:46;;;;;;;26.58;16.23;;;6.30;99.90;;;;;;5067349;28;20047;-77
2022/10/09 07:48:12;;;;;;;25.88;15.65;;;6.40;99.90;;;;;;5079408;28;20448;-77
2022/10/09 07:50:38;;;;;;;30.65;17.17;;;6.50;99.90;;;;;;5070178;28;20050;-77
2022/10/09 07:53:03;;;;;;;28.38;17.40;;;6.60;99.90;;;;;;5081812;28;20063;-76
2022/10/09 07:55:29;;;;;;;32.65;17.27;;;6.80;99.90;;;;;;5040709;28;20123;-77
2022/10/09 07:57:55;;;;;;;25.95;15.68;;;6.90;99.90;;;;;;5063089;28;20586;-77
2022/10/09 08:00:20;;;;;;;28.48;15.35;;;7.00;99.90;;;;;;5072074;28;20055;-77
2022/10/09 08:02:46;;;;;;;28.80;14.40;;;7.00;99.90;;;;;;5047212;28;20055;-78
2022/10/09 08:05:11;;;;;;;32.63;16.38;;;7.10;99.90;;;;;;5039701;28;20849;-78
2022/10/09 08:07:37;;;;;;;28.05;15.30;;;7.10;99.90;;;;;;5057627;28;20055;-77
2022/10/09 08:10:03;;;;;;;25.27;14.90;;;7.30;99.90;;;;;;5070549;28;20443;-77
2022/10/09 08:12:29;;;;;;;28.42;13.73;;;7.40;99.90;;;;;;5046459;28;20128;-77
2022/10/09 08:14:55;;;;;;;24.30;15.20;;;7.40;99.90;;;;;;5041950;28;20100;-80
2022/10/09 08:17:20;;;;;;;26.38;15.68;;;7.60;99.90;;;;;;5054616;28;20052;-77
2022/10/09 08:19:46;;;;;;;21.63;13.80;;;7.70;99.90;;;;;;5067442;28;20493;-76
2022/10/09 08:22:12;;;;;;;18.20;12.68;;;7.80;99.90;;;;;;5037696;28;20072;-78
2022/10/09 08:24:38;;;;;;;24.38;11.98;;;7.90;99.90;;;;;;5050728;28;20497;-77
2022/10/09 08:27:04;;;;;;;18.08;11.32;;;8.00;99.90;;;;;;5046508;28;20187;-77
2022/10/09 08:29:30;;;;;;;25.38;12.15;;;8.20;99.90;;;;;;5056537;28;20264;-77
2022/10/09 08:31:56;;;;;;;16.75;10.73;;;8.20;99.90;;;;;;5039120;28;20048;-80
2022/10/09 08:34:22;;;;;;;16.02;10.25;;;8.30;99.90;;;;;;5053458;28;20047;-78
2022/10/09 08:36:48;;;;;;;18.92;9.98;;;8.40;99.90;;;;;;5063400;28;20841;-76
2022/10/09 08:39:13;;;;;;;18.77;9.45;;;8.50;99.90;;;;;;5072944;28;20055;-77
2022/10/09 08:41:48;;;;;;;14.63;9.32;;;8.60;99.90;;;;;;5056040;28;20047;-77
2022/10/09 08:44:37;;;;;;;16.10;9.85;;;8.60;99.90;;;;;;5039743;28;20192;-77
2022/10/09 08:47:18;;;;;;;16.63;9.05;;;8.60;99.90;;;;;;5066238;28;20524;-78
2022/10/09 08:50:08;;;;;;;14.18;9.15;;;8.70;99.90;;;;;;5074001;28;20101;-77
2022/10/09 08:52:41;;;;;;;18.88;9.27;;;8.90;99.90;;;;;;5076789;28;20032;-78
2022/10/09 08:55:27;;;;;;;15.32;8.88;;;9.00;99.90;;;;;;5060901;28;20055;-77
2022/10/09 08:57:55;;;;;;;19.42;8.57;;;9.10;99.90;;;;;;5073170;28;20443;-77
2022/10/09 09:00:24;;;;;;;15.48;8.23;;;9.10;99.90;;;;;;5057011;28;20058;-77
2022/10/09 09:03:30;;;;;;;15.75;8.02;;;9.20;99.90;;;;;;5063550;28;20485;-77
2022/10/09 09:06:10;;;;;;;16.65;9.18;;;9.30;99.90;;;;;;5053826;28;20036;-78
2022/10/09 09:08:46;;;;;;;13.75;8.90;;;9.40;99.90;;;;;;5067148;28;20040;-77
2022/10/09 09:11:18;;;;;;;16.77;8.32;;;9.50;99.90;;;;;;5064941;28;20130;-78
2022/10/09 09:14:16;;;;;;;15.15;8.48;;;9.60;99.90;;;;;;5071583;28;20044;-77
2022/10/09 09:16:57;;;;;;;18.33;8.07;;;9.70;99.90;;;;;;5037375;28;20055;-78
2022/10/09 09:20:02;;;;;;;10.88;7.78;;;9.80;99.90;;;;;;5068068;28;20100;-80
2022/10/09 09:22:30;;;;;;;15.65;8.75;;;9.90;99.90;;;;;;5031733;28;20168;-77
2022/10/09 09:24:58;;;;;;;17.52;7.93;;;10.10;99.90;;;;;;5050574;28;20041;-78
2022/10/09 09:27:31;;;;;;;15.57;7.53;;;10.10;99.90;;;;;;5065096;28;20516;-77
2022/10/09 09:30:12;;;;;;;18.02;7.53;;;10.30;99.90;;;;;;5065217;28;20036;-77
2022/10/09 09:32:49;;;;;;;14.75;6.30;;;10.50;99.90;;;;;;5058051;28;20424;-77
2022/10/09 09:35:32;;;;;;;12.43;6.20;;;10.70;99.90;;;;;;5052436;28;20051;-77
2022/10/09 09:37:58;;;;;;;15.27;5.88;;;10.90;99.90;;;;;;5052362;28;20053;-77
2022/10/09 09:40:29;;;;;;;16.05;6.18;;;11.20;99.90;;;;;;5049335;28;20103;-77
2022/10/09 09:42:55;;;;;;;11.32;5.38;;;11.40;99.90;;;;;;5055961;28;20045;-76
2022/10/09 09:45:24;;;;;;;12.05;5.60;;;11.50;99.90;;;;;;5022588;28;20056;-77
2022/10/09 09:48:05;;;;;;;10.60;5.22;;;11.70;99.90;;;;;;5052209;28;20043;-77
2022/10/09 09:50:38;;;;;;;14.15;5.80;;;11.90;99.90;;;;;;5068669;28;20120;-78
2022/10/09 09:53:33;;;;;;;13.77;5.88;;;11.90;99.90;;;;;;5068700;28;20113;-77
2022/10/09 09:55:59;;;;;;;14.00;4.93;;;12.10;99.90;;;;;;5057077;28;20048;-77
2022/10/09 09:58:38;;;;;;;10.63;3.90;;;12.20;99.90;;;;;;5051557;28;20083;-77
2022/10/09 10:01:05;;;;;;;15.90;4.65;;;12.30;99.90;;;;;;5032492;28;20571;-78
2022/10/09 10:03:32;;;;;;;10.18;4.57;;;12.40;99.90;;;;;;5037460;28;20498;-77
2022/10/09 10:05:58;;;;;;;13.25;4.80;;;12.50;99.90;;;;;;5049534;28;20076;-79
2022/10/09 10:08:33;;;;;;;12.55;4.25;;;12.60;99.90;;;;;;5041949;28;20459;-78
2022/10/09 10:11:05;;;;;;;12.20;3.80;;;12.80;99.90;;;;;;5045127;28;20044;-78
2022/10/09 10:13:46;;;;;;;9.57;4.18;;;13.00;99.90;;;;;;5070759;28;20102;-77
2022/10/09 10:16:29;;;;;;;10.20;3.30;;;13.10;99.90;;;;;;5049471;28;20052;-80
2022/10/09 10:18:56;;;;;;;13.15;3.42;;;13.20;99.90;;;;;;5066194;28;20090;-76
2022/10/09 10:21:22;;;;;;;15.68;3.95;;;13.30;99.90;;;;;;5032043;28;20049;-76
2022/10/09 10:23:59;;;;;;;9.27;3.17;;;13.40;99.90;;;;;;5033837;28;20071;-77
2022/10/09 10:26:50;;;;;;;9.18;3.08;;;13.50;99.90;;;;;;5064145;28;20490;-75
2022/10/09 10:29:24;;;;;;;11.27;4.05;;;13.70;84.40;;;;;;5032694;28;20063;-77
2022/10/09 10:31:52;;;;;;;12.00;3.40;;;13.80;99.90;;;;;;5051986;28;20052;-76
2022/10/09 10:35:09;;;;;;;11.38;2.85;;;13.90;95.30;;;;;;5038088;28;20059;-76
2022/10/09 10:38:17;;;;;;;11.25;3.05;;;14.10;1.00;;;;;;5027563;28;20260;-76
2022/10/09 10:40:57;;;;;;;7.30;2.28;;;14.20;35.60;;;;;;5063081;28;20444;-76
2022/10/09 10:43:34;;;;;;;6.32;2.72;;;14.40;1.00;;;;;;5033101;28;20064;-78
2022/10/09 10:46:31;;;;;;;6.70;2.13;;;14.60;1.00;;;;;;5057205;28;20041;-76
2022/10/09 10:48:58;;;;;;;11.00;2.55;;;14.70;1.00;;;;;;5062896;28;20044;-76
2022/10/09 10:51:49;;;;;;;9.07;2.22;;;14.90;1.00;;;;;;5058612;28;20398;-76
2022/10/09 10:54:23;;;;;;;7.18;2.00;;;15.00;1.00;;;;;;5055017;28;20060;-81
2022/10/09 10:57:11;;;;;;;6.57;2.05;;;15.10;1.00;;;;;;5067846;28;20044;-77
2022/10/09 10:59:43;;;;;;;7.78;2.28;;;15.20;1.00;;;;;;5040764;28;20051;-76
2022/10/09 11:02:09;;;;;;;10.93;2.40;;;15.40;1.00;;;;;;5067613;28;20054;-77
2022/10/09 11:05:11;;;;;;;6.90;2.17;;;15.60;1.00;;;;;;5051163;28;20057;-76
2022/10/09 11:07:59;;;;;;;9.90;2.35;;;15.80;1.00;;;;;;5057102;28;20563;-76
2022/10/09 11:11:06;;;;;;;8.85;1.65;;;15.90;99.90;;;;;;5060825;28;20056;-76
2022/10/09 11:13:42;;;;;;;8.70;1.70;;;16.00;99.90;;;;;;5060858;28;20056;-77
2022/10/09 11:16:20;;;;;;;6.18;1.63;;;16.10;99.90;;;;;;5044055;28;20390;-76
2022/10/09 11:19:14;;;;;;;8.98;2.55;;;16.20;1.00;;;;;;5056052;28;20050;-77
2022/10/09 11:21:58;;;;;;;5.43;1.48;;;16.20;82.20;;;;;;5048588;28;20045;-76
2022/10/09 11:24:45;;;;;;;8.18;1.98;;;16.20;99.90;;;;;;5030844;28;20102;-77
2022/10/09 11:27:19;;;;;;;6.78;2.15;;;16.20;99.90;;;;;;5052240;28;20049;-76
2022/10/09 11:30:01;;;;;;;8.98;2.58;;;16.20;99.90;;;;;;5053682;28;20052;-76
2022/10/09 11:32:34;;;;;;;8.98;2.30;;;16.30;1.00;;;;;;5054068;28;20095;-76
2022/10/09 11:35:03;;;;;;;8.40;2.40;;;16.40;1.00;;;;;;5058832;28;20045;-76
2022/10/09 11:37:37;;;;;;;5.78;2.40;;;16.40;1.00;;;;;;5049329;28;20056;-76
2022/10/09 11:40:15;;;;;;;11.98;2.95;;;16.50;1.00;;;;;;5048108;28;20835;-77
2022/10/09 11:42:42;;;;;;;9.27;2.28;;;16.60;99.90;;;;;;5048414;28;20686;-76
2022/10/09 11:45:56;;;;;;;5.72;2.20;;;16.60;99.90;;;;;;5048406;28;20106;-76
2022/10/09 11:48:28;;;;;;;8.55;2.25;;;16.70;1.00;;;;;;5052846;28;20048;-82
2022/10/09 11:51:20;;;;;;;6.55;2.50;;;16.70;41.70;;;;;;5049794;28;20048;-76
2022/10/09 11:53:46;;;;;;;7.32;2.63;;;16.80;1.00;;;;;;5045992;28;20048;-77
2022/10/09 11:56:27;;;;;;;8.90;2.67;;;16.80;1.00;;;;;;5040421;28;20061;-76
2022/10/09 11:59:06;;;;;;;9.25;2.33;;;17.00;1.00;;;;;;5047354;28;20135;-78
2022/10/09 12:01:38;;;;;;;10.15;2.97;;;17.10;1.00;;;;;;5054887;28;20063;-77
2022/10/09 12:04:24;;;;;;;8.57;2.08;;;17.10;1.00;;;;;;5054091;28;20063;-76
2022/10/09 12:06:59;;;;;;;10.48;2.92;;;17.20;1.00;;;;;;5067684;28;20055;-76
2022/10/09 12:09:38;;;;;;;8.10;2.47;;;17.30;99.90;;;;;;5044177;28;20052;-80
2022/10/09 12:12:08;;;;;;;5.38;2.00;;;17.40;99.90;;;;;;5052118;28;20123;-76
2022/10/09 12:14:36;;;;;;;8.40;2.22;;;17.50;99.90;;;;;;5050696;28;20422;-78
2022/10/09 12:17:30;;;;;;;8.30;2.30;;;17.50;99.90;;;;;;5051352;28;20087;-77
2022/10/09 12:20:08;;;;;;;8.13;2.13;;;17.60;99.90;;;;;;5045640;28;20483;-78
2022/10/09 12:22:42;;;;;;;11.93;2.40;;;17.70;99.90;;;;;;5070494;28;20105;-76
2022/10/09 12:25:25;;;;;;;9.80;2.38;;;17.80;99.90;;;;;;5052537;28;20055;-77
2022/10/09 12:27:54;;;;;;;4.47;1.85;;;17.80;99.90;;;;;;5058678;28;20599;-77
2022/10/09 12:30:34;;;;;;;8.35;2.20;;;17.90;99.90;;;;;;5044689;28;20397;-76
2022/10/09 12:33:38;;;;;;;6.75;2.40;;;17.90;99.40;;;;;;5062575;28;20072;-77
2022/10/09 12:36:15;;;;;;;8.95;2.83;;;17.90;95.80;;;;;;5051118;28;20048;-77
2022/10/09 12:38:42;;;;;;;8.00;2.25;;;17.80;95.10;;;;;;5060913;28;20114;-79
2022/10/09 12:41:20;;;;;;;6.75;2.38;;;17.80;98.50;;;;;;5065258;28;20117;-77
2022/10/09 12:43:47;;;;;;;9.23;2.92;;;17.90;98.00;;;;;;5061004;28;20080;-78
2022/10/09 12:46:13;;;;;;;9.43;2.63;;;18.00;97.40;;;;;;5048144;28;20505;-77
2022/10/09 12:48:41;;;;;;;8.65;3.03;;;18.00;97.40;;;;;;5067706;28;20080;-77
2022/10/09 12:51:20;;;;;;;6.13;2.42;;;18.20;93.60;;;;;;5065633;28;20052;-77
2022/10/09 12:53:48;;;;;;;7.53;2.50;;;18.40;91.70;;;;;;5069923;28;20064;-78
2022/10/09 12:56:17;;;;;;;6.35;2.70;;;18.70;91.50;;;;;;5064664;28;20052;-77
2022/10/09 12:58:43;;;;;;;9.13;2.83;;;19.10;88.40;;;;;;5047717;28;20054;-80
2022/10/09 13:01:14;;;;;;;9.35;3.08;;;19.50;80.50;;;;;;5049364;28;20048;-77
2022/10/09 13:04:02;;;;;;;6.47;2.67;;;20.10;76.50;;;;;;5067960;28;20133;-76